This is the latest recevied weather packets stored in our database for station/object CA3EVY-3. If no packets are shown the sender has not sent any weather packets the latest 10 day(s).
| Time | Temp. | Humidity | Pressure | Rain* | Wind** | Luminosity | Snow |
|---|---|---|---|---|---|---|---|
| 1788240603 | 12.22° C | 64% | 923.8 hPa | - | - | - | - |
| 1788239703 | 12.22° C | 64% | 923.8 hPa | - | - | - | - |
| 1788238805 | 12.22° C | 63% | 923.8 hPa | - | - | - | - |
| 1788237904 | 12.22° C | 63% | 923.6 hPa | - | - | - | - |
| 1788210904 | 20° C | 47% | 923.8 hPa | - | - | - | - |
| 1788210003 | 20° C | 48% | 923.8 hPa | - | - | - | - |
| 1788207304 | 20° C | 48% | 923.6 hPa | - | - | - | - |
| 1788205503 | 20° C | 49% | 923.8 hPa | - | - | - | - |
| 1788204603 | 19.44° C | 51% | 923.9 hPa | - | - | - | - |
| 1788203703 | 19.44° C | 51% | 924 hPa | - | - | - | - |
| 1788201003 | 18.33° C | 54% | 924.3 hPa | - | - | - | - |
| 1788200104 | 17.22° C | 54% | 924.4 hPa | - | - | - | - |
| 1788199204 | 17.22° C | 56% | 924.5 hPa | - | - | - | - |
| 1788198303 | 17.22° C | 56% | 924.8 hPa | - | - | - | - |
| 1788197404 | 16.67° C | 59% | 924.9 hPa | - | - | - | - |
| 1788196503 | 16.11° C | 59% | 925 hPa | - | - | - | - |
| 1788195603 | 16.11° C | 62% | 925.2 hPa | - | - | - | - |
| 1788194705 | 15° C | 62% | 925.3 hPa | - | - | - | - |
| 1788193804 | 14.44° C | 65% | 925.5 hPa | - | - | - | - |
| 1788192903 | 14.44° C | 65% | 925.6 hPa | - | - | - | - |
| 1788192003 | 13.89° C | 68% | 925.7 hPa | - | - | - | - |
| 1788191104 | 13.89° C | 68% | 925.9 hPa | - | - | - | - |
| 1788190203 | 13.33° C | 66% | 925.8 hPa | - | - | - | - |
| 1788189304 | 13.33° C | 66% | 926 hPa | - | - | - | - |
| 1788188405 | 12.78° C | 67% | 926 hPa | - | - | - | - |
* Rain since midnight (hover to see other rain measurements)
** Current wind speed in m/s (hover to see current wind gust speed)